createdAt,value
2022-12-31T06:28:57.533Z,1005.42
2022-12-31T06:31:40.272Z,1005.40
2022-12-31T06:35:22.811Z,1005.36
2022-12-31T06:43:47.873Z,1005.18
2022-12-31T07:14:35.269Z,1005.02
2022-12-31T07:16:50.683Z,1005.04
2022-12-31T08:07:39.866Z,1005.61
2022-12-31T08:18:42.904Z,1005.38
2022-12-31T08:25:44.697Z,1005.34
2022-12-31T12:21:08.133Z,1005.99
2022-12-31T12:54:52.335Z,1005.87
2022-12-31T13:06:39.713Z,1006.06
2022-12-31T13:29:01.078Z,1006.20
2022-12-31T14:50:55.671Z,1007.79
2022-12-31T15:15:04.400Z,1007.84
2022-12-31T15:16:05.309Z,1007.81
2022-12-31T15:42:38.600Z,1007.70
2022-12-31T16:18:01.751Z,1008.05
2022-12-31T16:20:36.632Z,1008.09
2022-12-31T16:25:19.434Z,1007.91
2022-12-31T16:25:46.280Z,1007.88
2022-12-31T16:30:10.653Z,1008.02
2022-12-31T16:32:50.776Z,1008.05
2022-12-31T16:35:21.549Z,1008.09
2022-12-31T16:37:49.629Z,1008.11
2022-12-31T16:41:00.479Z,1008.08
2022-12-31T16:43:18.263Z,1008.02
2022-12-31T16:46:13.655Z,1008.08
2022-12-31T16:48:50.192Z,1008.10
2022-12-31T16:51:47.619Z,1008.04
2022-12-31T16:54:11.366Z,1008.09
2022-12-31T16:56:23.808Z,1008.18
2022-12-31T17:00:28.162Z,1008.23
2022-12-31T17:02:49.611Z,1008.05
2022-12-31T17:05:18.753Z,1008.14
2022-12-31T17:07:34.042Z,1008.21
2022-12-31T17:09:47.718Z,1008.11
2022-12-31T17:13:59.905Z,1008.11
2022-12-31T17:16:19.068Z,1008.15
2022-12-31T17:28:47.541Z,1008.19
2022-12-31T17:31:21.968Z,1008.21
2022-12-31T17:33:39.801Z,1008.16
2022-12-31T18:08:12.059Z,1008.42
2022-12-31T18:10:35.008Z,1008.32
2022-12-31T18:39:26.855Z,1008.80
2022-12-31T18:41:47.192Z,1008.66
2022-12-31T18:44:07.659Z,1008.61
2022-12-31T18:46:28.467Z,1008.60
2022-12-31T18:50:49.831Z,1008.80
2022-12-31T18:53:10.353Z,1008.75
2022-12-31T18:55:27.003Z,1008.72
2022-12-31T18:57:47.596Z,1008.64
2022-12-31T19:00:06.772Z,1008.59
2022-12-31T19:03:32.268Z,1008.64
2022-12-31T19:05:50.905Z,1008.72
2022-12-31T19:08:07.279Z,1008.70
2022-12-31T19:09:23.927Z,1008.70
2022-12-31T19:10:08.273Z,1008.71
2022-12-31T19:12:27.836Z,1008.74
2022-12-31T19:14:46.923Z,1008.74
2022-12-31T19:17:40.637Z,1008.74
2022-12-31T19:19:58.799Z,1008.72
2022-12-31T19:22:19.410Z,1008.63
2022-12-31T19:24:38.462Z,1008.69
2022-12-31T19:26:56.621Z,1008.76
2022-12-31T19:29:15.661Z,1008.68
2022-12-31T19:31:32.880Z,1008.66
2022-12-31T19:33:55.010Z,1008.65
2022-12-31T19:36:13.826Z,1008.61
2022-12-31T19:38:28.591Z,1008.58
2022-12-31T19:40:44.267Z,1008.51
2022-12-31T19:43:00.916Z,1008.58
2022-12-31T19:45:21.513Z,1008.66
2022-12-31T19:47:42.099Z,1008.64
2022-12-31T19:50:03.243Z,1008.61
2022-12-31T19:52:20.295Z,1008.52
2022-12-31T19:54:38.413Z,1008.63
2022-12-31T19:56:56.471Z,1008.69
2022-12-31T19:59:12.169Z,1008.73
2022-12-31T20:02:12.729Z,1008.66
2022-12-31T20:40:10.609Z,1008.62
2022-12-31T20:50:11.676Z,1008.71
2022-12-31T21:42:41.542Z,1008.93
2022-12-31T21:57:17.149Z,1008.68
2022-12-31T22:10:03.396Z,1008.98
2022-12-31T22:50:27.242Z,1009.41
2022-12-31T23:00:27.451Z,1009.40
2022-12-31T23:02:47.996Z,1009.36
2022-12-31T23:05:14.931Z,1009.40
2022-12-31T23:07:25.150Z,1009.35
2022-12-31T23:09:43.260Z,1009.47
2022-12-31T23:12:54.860Z,1009.51
2022-12-31T23:15:11.383Z,1009.43
2022-12-31T23:17:32.036Z,1009.48
2022-12-31T23:19:46.018Z,1009.54
2022-12-31T23:22:06.270Z,1009.49
2022-12-31T23:24:26.216Z,1009.50
2022-12-31T23:26:41.303Z,1009.49
2022-12-31T23:28:59.457Z,1009.46
2022-12-31T23:31:16.041Z,1009.51
2022-12-31T23:33:33.659Z,1009.50
2022-12-31T23:35:49.268Z,1009.57
2022-12-31T23:38:03.989Z,1009.57
2022-12-31T23:41:25.175Z,1009.58
2022-12-31T23:43:40.686Z,1009.61
2022-12-31T23:45:58.301Z,1009.72
2022-12-31T23:48:16.382Z,1009.71
2022-12-31T23:50:36.980Z,1009.80
2022-12-31T23:52:56.092Z,1009.82
2022-12-31T23:55:32.796Z,1009.86
2022-12-31T23:58:23.848Z,1009.82
